createdAt,value
2018-07-03T00:01:39.433Z,2.50
2018-07-03T00:04:13.932Z,2.30
2018-07-03T00:06:47.871Z,2.40
2018-07-03T00:09:21.712Z,2.40
2018-07-03T00:11:56.264Z,2.62
2018-07-03T00:14:30.920Z,2.30
2018-07-03T00:17:04.764Z,2.60
2018-07-03T00:19:39.328Z,2.42
2018-07-03T00:22:13.128Z,2.60
2018-07-03T00:24:46.815Z,2.25
2018-07-03T00:27:20.604Z,2.70
2018-07-03T00:29:55.807Z,2.50
2018-07-03T00:32:30.389Z,2.35
2018-07-03T00:35:04.888Z,2.87
2018-07-03T00:37:38.665Z,2.58
2018-07-03T00:40:13.132Z,2.90
2018-07-03T00:42:46.856Z,2.12
2018-07-03T00:45:20.703Z,2.50
2018-07-03T00:47:54.425Z,2.83
2018-07-03T00:50:28.976Z,2.40
2018-07-03T00:53:02.584Z,2.35
2018-07-03T00:55:37.128Z,2.10
2018-07-03T00:58:10.884Z,2.10
2018-07-03T01:00:44.697Z,2.58
2018-07-03T01:03:19.253Z,2.60
2018-07-03T01:05:52.903Z,2.62
2018-07-03T01:08:26.667Z,2.33
2018-07-03T01:11:01.300Z,2.70
2018-07-03T01:13:35.892Z,2.67
2018-07-03T01:16:10.464Z,3.60
2018-07-03T01:18:45.040Z,2.10
2018-07-03T01:21:18.674Z,2.47
2018-07-03T01:23:52.508Z,2.42
2018-07-03T01:26:26.348Z,2.70
2018-07-03T01:29:00.981Z,2.25
2018-07-03T01:31:34.612Z,2.50
2018-07-03T01:34:09.109Z,2.60
2018-07-03T01:36:42.876Z,2.22
2018-07-03T01:39:16.501Z,2.92
2018-07-03T01:41:50.340Z,2.80
2018-07-03T01:44:24.109Z,2.78
2018-07-03T01:46:57.770Z,2.53
2018-07-03T01:49:31.484Z,2.00
2018-07-03T01:52:05.161Z,3.10
2018-07-03T01:54:38.871Z,2.70
2018-07-03T01:57:12.592Z,2.40
2018-07-03T01:59:47.095Z,2.47
2018-07-03T02:02:21.709Z,2.30
2018-07-03T02:04:56.348Z,3.75
2018-07-03T02:07:30.194Z,2.20
2018-07-03T02:10:04.579Z,1.90
2018-07-03T02:12:38.427Z,2.80
2018-07-03T02:15:12.272Z,2.80
2018-07-03T02:17:46.108Z,2.45
2018-07-03T02:20:19.974Z,3.40
2018-07-03T02:22:54.303Z,3.35
2018-07-03T02:25:28.974Z,2.50
2018-07-03T02:28:03.553Z,2.60
2018-07-03T02:30:37.296Z,2.97
2018-07-03T02:33:11.005Z,2.60
2018-07-03T02:35:44.871Z,2.60
2018-07-03T02:38:18.664Z,2.40
2018-07-03T02:40:52.549Z,2.30
2018-07-03T02:43:26.369Z,2.33
2018-07-03T02:46:00.264Z,2.87
2018-07-03T02:48:33.936Z,2.60
2018-07-03T02:51:07.689Z,2.80
2018-07-03T02:53:41.449Z,2.70
2018-07-03T02:56:15.366Z,2.90
2018-07-03T02:58:49.132Z,2.60
2018-07-03T03:01:23.684Z,2.55
2018-07-03T03:03:57.695Z,2.95
2018-07-03T03:06:31.520Z,3.15
2018-07-03T03:09:06.063Z,2.33
2018-07-03T03:11:39.814Z,2.87
2018-07-03T03:14:14.248Z,2.90
2018-07-03T03:16:48.111Z,2.90
2018-07-03T03:19:21.880Z,2.28
2018-07-03T03:21:55.690Z,3.15
2018-07-03T03:24:30.107Z,2.90
2018-07-03T03:27:04.561Z,3.22
2018-07-03T03:29:38.194Z,2.70
2018-07-03T03:32:11.999Z,2.50
2018-07-03T03:34:45.687Z,2.62
2018-07-03T03:37:20.296Z,2.70
2018-07-03T03:39:54.030Z,2.53
2018-07-03T03:42:27.837Z,3.20
2018-07-03T03:45:02.376Z,3.12
2018-07-03T03:47:36.210Z,3.03
2018-07-03T03:50:10.616Z,2.67
2018-07-03T03:52:45.210Z,2.87
2018-07-03T03:55:18.927Z,3.22
2018-07-03T03:57:53.557Z,2.75
2018-07-03T04:00:27.341Z,2.85
2018-07-03T04:03:01.121Z,2.92
2018-07-03T04:05:34.962Z,2.60
2018-07-03T04:08:10.891Z,3.50
2018-07-03T04:10:44.564Z,2.75
2018-07-03T04:13:19.142Z,2.70
2018-07-03T04:15:52.967Z,3.00
2018-07-03T04:18:26.759Z,2.85
2018-07-03T04:21:00.386Z,2.97
2018-07-03T04:23:34.977Z,3.60
2018-07-03T04:26:08.697Z,3.42
2018-07-03T04:28:43.308Z,4.00
2018-07-03T04:31:17.131Z,3.53
2018-07-03T04:33:51.752Z,2.70
2018-07-03T04:36:26.369Z,3.22
2018-07-03T04:39:00.456Z,3.40
2018-07-03T04:41:34.376Z,3.20
2018-07-03T04:44:08.232Z,3.60
2018-07-03T04:46:42.140Z,3.15
2018-07-03T04:49:15.901Z,3.60
2018-07-03T04:51:49.773Z,3.00
2018-07-03T04:54:24.343Z,3.05
2018-07-03T04:56:57.951Z,4.30
2018-07-03T04:59:32.426Z,2.90
2018-07-03T05:02:06.072Z,3.45
2018-07-03T05:04:40.509Z,3.50
2018-07-03T05:07:14.308Z,3.30
2018-07-03T05:09:48.091Z,3.97
2018-07-03T05:12:21.836Z,3.73
2018-07-03T05:14:56.400Z,3.30
2018-07-03T05:17:30.322Z,3.33
2018-07-03T05:20:04.017Z,3.10
2018-07-03T05:22:38.664Z,3.50
2018-07-03T05:25:12.281Z,3.57
2018-07-03T05:27:46.123Z,3.60
2018-07-03T05:30:19.825Z,4.23
2018-07-03T05:32:54.428Z,3.57
2018-07-03T05:35:29.120Z,4.50
2018-07-03T05:38:03.028Z,6.43
2018-07-03T05:40:37.554Z,3.63
2018-07-03T05:43:12.099Z,3.67
2018-07-03T05:45:45.856Z,3.45
2018-07-03T05:48:19.489Z,4.15
2018-07-03T05:50:53.345Z,3.40
2018-07-03T05:53:27.949Z,4.30
2018-07-03T05:56:01.800Z,5.87
2018-07-03T05:58:36.324Z,3.53
2018-07-03T06:01:09.970Z,3.83
2018-07-03T06:03:44.553Z,3.60
2018-07-03T06:06:18.286Z,3.47
2018-07-03T06:08:51.946Z,4.35
2018-07-03T06:11:25.587Z,4.97
2018-07-03T06:13:59.405Z,3.10
2018-07-03T06:16:33.153Z,5.50
2018-07-03T06:19:07.738Z,2.80
2018-07-03T06:21:41.459Z,3.50
2018-07-03T06:24:15.135Z,3.00
2018-07-03T06:26:48.981Z,3.67
2018-07-03T06:29:23.350Z,3.08
2018-07-03T06:31:57.984Z,3.80
2018-07-03T06:34:32.530Z,2.45
2018-07-03T06:37:07.225Z,3.00
2018-07-03T06:39:40.815Z,3.30
2018-07-03T06:42:15.476Z,2.60
2018-07-03T06:44:49.319Z,3.27
2018-07-03T06:47:23.260Z,2.70
2018-07-03T06:49:57.781Z,3.40
2018-07-03T06:52:31.508Z,3.03
2018-07-03T06:55:06.156Z,3.05
2018-07-03T06:57:40.111Z,2.73
2018-07-03T07:00:14.720Z,2.80
2018-07-03T07:02:49.300Z,2.80
2018-07-03T07:05:23.028Z,2.90
2018-07-03T07:07:56.834Z,3.27
2018-07-03T07:10:30.663Z,3.27
2018-07-03T07:13:04.440Z,2.80
2018-07-03T07:15:38.321Z,4.60
2018-07-03T07:18:12.164Z,2.40
2018-07-03T07:20:46.771Z,3.50
2018-07-03T07:23:21.338Z,5.30
2018-07-03T07:25:55.924Z,2.70
2018-07-03T07:28:29.539Z,2.70
2018-07-03T07:31:03.406Z,2.73
2018-07-03T07:33:37.241Z,2.60
2018-07-03T07:36:11.752Z,2.63
2018-07-03T07:38:45.651Z,2.73
2018-07-03T07:41:19.619Z,2.60
2018-07-03T07:43:53.495Z,2.93
2018-07-03T07:49:01.980Z,2.80
2018-07-03T07:51:35.771Z,4.83
2018-07-03T07:54:09.526Z,3.50
2018-07-03T07:56:43.292Z,2.80
2018-07-03T07:59:17.827Z,2.70
2018-07-03T08:01:51.727Z,2.63
2018-07-03T08:04:25.452Z,3.00
2018-07-03T08:06:59.297Z,2.53
2018-07-03T08:09:33.896Z,3.20
2018-07-03T08:12:07.688Z,2.77
2018-07-03T08:14:41.583Z,2.70
2018-07-03T08:17:15.233Z,3.10
2018-07-03T08:19:49.081Z,2.90
2018-07-03T08:22:23.656Z,3.03
2018-07-03T08:24:57.448Z,3.00
2018-07-03T08:27:32.784Z,2.80
2018-07-03T08:30:06.572Z,2.60
2018-07-03T08:32:40.309Z,2.40
2018-07-03T08:35:14.914Z,2.90
2018-07-03T08:37:48.799Z,2.70
2018-07-03T08:40:23.419Z,2.27
2018-07-03T08:42:57.275Z,3.10
2018-07-03T08:45:31.720Z,2.43
2018-07-03T08:48:05.353Z,2.30
2018-07-03T08:50:39.212Z,2.77
2018-07-03T08:53:13.694Z,4.73
2018-07-03T08:55:47.557Z,2.77
2018-07-03T08:58:21.228Z,2.77
2018-07-03T09:00:54.952Z,2.90
2018-07-03T09:03:28.768Z,2.70
2018-07-03T09:06:03.267Z,2.60
2018-07-03T09:08:37.080Z,2.87
2018-07-03T09:11:11.625Z,3.40
2018-07-03T09:13:45.292Z,2.70
2018-07-03T09:16:19.091Z,3.33
2018-07-03T09:18:52.905Z,4.00
2018-07-03T09:21:26.860Z,3.20
2018-07-03T09:24:00.527Z,2.77
2018-07-03T09:26:35.124Z,3.07
2018-07-03T09:29:10.469Z,2.60
2018-07-03T09:31:44.376Z,2.57
2018-07-03T09:34:18.233Z,2.43
2018-07-03T09:36:52.788Z,2.20
2018-07-03T09:39:26.658Z,2.33
2018-07-03T09:42:00.462Z,2.07
2018-07-03T09:44:34.264Z,1.60
2018-07-03T09:47:08.128Z,6.10
2018-07-03T09:49:41.817Z,1.80
2018-07-03T09:52:15.709Z,1.70
2018-07-03T09:54:49.552Z,1.83
2018-07-03T09:57:24.065Z,2.20
2018-07-03T09:59:57.665Z,1.87
2018-07-03T10:02:31.528Z,1.80
2018-07-03T10:05:06.016Z,2.53
2018-07-03T10:07:39.672Z,2.30
2018-07-03T10:10:13.561Z,2.30
2018-07-03T10:12:47.500Z,2.00
2018-07-03T10:15:21.287Z,3.47
2018-07-03T10:17:55.776Z,4.90
2018-07-03T10:20:29.483Z,2.00
2018-07-03T10:23:03.272Z,1.87
2018-07-03T10:25:36.928Z,1.50
2018-07-03T10:28:10.604Z,1.77
2018-07-03T10:30:44.321Z,2.43
2018-07-03T10:33:17.900Z,2.40
2018-07-03T10:35:51.567Z,2.00
2018-07-03T10:38:25.316Z,2.00
2018-07-03T10:40:59.013Z,1.67
2018-07-03T10:43:32.706Z,4.07
2018-07-03T10:46:06.415Z,2.00
2018-07-03T10:48:41.649Z,2.03
2018-07-03T10:51:16.281Z,1.80
2018-07-03T10:53:49.964Z,2.30
2018-07-03T10:56:23.689Z,2.30
2018-07-03T10:58:57.409Z,2.30
2018-07-03T11:01:31.300Z,2.60
2018-07-03T11:04:05.736Z,1.90
2018-07-03T11:06:39.422Z,2.30
2018-07-03T11:09:13.935Z,2.07
2018-07-03T11:11:47.537Z,2.53
2018-07-03T11:14:21.421Z,2.23
2018-07-03T11:16:55.235Z,2.10
2018-07-03T11:19:29.774Z,2.50
2018-07-03T11:22:03.436Z,2.40
2018-07-03T11:24:37.183Z,3.20
2018-07-03T11:27:11.100Z,3.20
2018-07-03T11:29:44.916Z,3.60
2018-07-03T11:32:18.636Z,4.90
2018-07-03T11:34:52.461Z,2.27
2018-07-03T11:37:26.255Z,2.60
2018-07-03T11:40:00.897Z,2.70
2018-07-03T11:42:35.368Z,3.30
2018-07-03T11:45:09.861Z,2.83
2018-07-03T11:47:44.146Z,3.60
2018-07-03T11:50:17.994Z,3.20
2018-07-03T11:52:51.730Z,3.50
2018-07-03T11:55:25.527Z,2.90
2018-07-03T11:58:00.133Z,4.27
2018-07-03T12:00:35.467Z,2.80
2018-07-03T12:03:09.192Z,4.73
2018-07-03T12:05:42.808Z,3.90
2018-07-03T12:08:16.440Z,4.37
2018-07-03T12:10:50.283Z,4.00
2018-07-03T12:13:24.816Z,3.93
2018-07-03T12:15:59.236Z,4.50
2018-07-03T12:18:33.659Z,5.20
2018-07-03T12:21:07.627Z,9.97
2018-07-03T12:23:42.063Z,5.20
2018-07-03T12:26:15.697Z,5.20
2018-07-03T12:28:49.531Z,4.90
2018-07-03T12:31:24.019Z,4.53
2018-07-03T12:34:00.079Z,4.53
2018-07-03T12:36:33.974Z,4.47
2018-07-03T12:39:07.807Z,4.77
2018-07-03T12:41:41.640Z,4.80
2018-07-03T12:44:15.550Z,6.70
2018-07-03T12:46:49.200Z,5.13
2018-07-03T12:49:23.031Z,4.80
2018-07-03T12:51:56.761Z,4.97
2018-07-03T12:54:30.580Z,5.63
2018-07-03T12:57:04.353Z,6.10
2018-07-03T12:59:38.034Z,4.90
2018-07-03T13:02:12.701Z,5.33
2018-07-03T13:04:46.472Z,5.80
2018-07-03T13:07:20.232Z,5.30
2018-07-03T13:09:53.924Z,4.57
2018-07-03T13:12:27.630Z,5.20
2018-07-03T13:15:02.309Z,5.13
2018-07-03T13:17:36.063Z,4.87
2018-07-03T13:20:10.520Z,5.50
2018-07-03T13:22:45.084Z,4.50
2018-07-03T13:25:19.628Z,4.43
2018-07-03T13:27:54.009Z,4.40
2018-07-03T13:30:27.666Z,5.20
2018-07-03T13:33:02.224Z,4.90
2018-07-03T13:35:36.048Z,5.90
2018-07-03T13:38:09.895Z,5.00
2018-07-03T13:40:43.690Z,5.53
2018-07-03T13:43:18.287Z,7.87
2018-07-03T13:45:52.037Z,6.27
2018-07-03T13:48:25.981Z,5.00
2018-07-03T13:50:59.564Z,6.97
2018-07-03T13:53:33.275Z,5.10
2018-07-03T13:56:08.659Z,5.90
2018-07-03T13:58:43.110Z,5.50
2018-07-03T14:01:16.921Z,7.63
2018-07-03T14:03:50.776Z,4.67
2018-07-03T14:06:24.460Z,4.20
2018-07-03T14:09:08.497Z,4.10
2018-07-03T14:11:42.868Z,3.80
2018-07-03T14:14:17.500Z,3.90
2018-07-03T14:16:51.317Z,4.30
2018-07-03T14:19:25.008Z,4.57
2018-07-03T14:21:58.905Z,4.10
2018-07-03T14:24:32.658Z,3.90
2018-07-03T14:27:06.412Z,4.47
2018-07-03T14:29:40.212Z,4.30
2018-07-03T14:32:14.046Z,4.10
2018-07-03T14:34:47.944Z,5.27
2018-07-03T14:37:21.885Z,4.10
2018-07-03T14:39:57.060Z,3.67
2018-07-03T14:42:31.683Z,3.40
2018-07-03T14:45:06.346Z,3.63
2018-07-03T14:47:40.148Z,3.93
2018-07-03T14:50:13.855Z,3.70
2018-07-03T14:52:47.872Z,3.40
2018-07-03T14:55:21.524Z,4.80
2018-07-03T14:57:56.040Z,3.70
2018-07-03T15:00:30.167Z,3.10
2018-07-03T15:03:04.001Z,3.73
2018-07-03T15:05:37.704Z,3.57
2018-07-03T15:08:11.404Z,3.60
2018-07-03T15:10:45.210Z,3.33
2018-07-03T15:13:19.830Z,3.33
2018-07-03T15:15:54.422Z,3.47
2018-07-03T15:18:28.235Z,3.77
2018-07-03T15:21:01.992Z,4.23
2018-07-03T15:23:35.664Z,3.90
2018-07-03T15:26:11.379Z,3.80
2018-07-03T15:28:45.268Z,3.77
2018-07-03T15:31:20.894Z,3.40
2018-07-03T15:33:54.648Z,3.40
2018-07-03T15:36:29.244Z,3.30
2018-07-03T15:39:02.986Z,3.17
2018-07-03T15:41:37.020Z,3.87
2018-07-03T15:44:22.815Z,5.00
2018-07-03T15:46:56.830Z,3.87
2018-07-03T15:49:30.561Z,3.90
2018-07-03T15:52:04.411Z,3.40
2018-07-03T15:54:39.394Z,3.77
2018-07-03T15:57:13.240Z,3.97
2018-07-03T15:59:46.896Z,3.90
2018-07-03T16:02:21.396Z,3.70
2018-07-03T16:04:55.904Z,3.67
2018-07-03T16:07:38.496Z,4.30
2018-07-03T16:10:12.208Z,3.87
2018-07-03T16:12:46.824Z,3.63
2018-07-03T16:15:20.572Z,5.77
2018-07-03T16:17:54.408Z,3.50
2018-07-03T16:20:43.673Z,3.60
2018-07-03T16:23:17.516Z,3.60
2018-07-03T16:25:51.270Z,3.80
2018-07-03T16:28:24.944Z,3.93
2018-07-03T16:30:59.540Z,3.93
2018-07-03T16:33:33.488Z,4.43
2018-07-03T16:36:08.099Z,3.20
2018-07-03T16:38:41.937Z,4.77
2018-07-03T16:41:16.543Z,3.63
2018-07-03T16:43:50.320Z,3.20
2018-07-03T16:46:24.089Z,3.60
2018-07-03T16:48:58.676Z,3.80
2018-07-03T16:51:33.275Z,3.90
2018-07-03T16:54:07.127Z,2.93
2018-07-03T16:56:40.897Z,3.97
2018-07-03T16:59:14.632Z,4.20
2018-07-03T17:01:48.480Z,3.90
2018-07-03T17:04:23.036Z,3.70
2018-07-03T17:06:56.995Z,4.13
2018-07-03T17:09:30.916Z,4.70
2018-07-03T17:12:04.777Z,14.90
2018-07-03T17:14:38.464Z,3.90
2018-07-03T17:17:12.918Z,3.40
2018-07-03T17:19:48.250Z,4.13
2018-07-03T17:22:21.928Z,3.50
2018-07-03T17:24:55.691Z,3.70
2018-07-03T17:27:29.426Z,4.10
2018-07-03T17:30:03.269Z,5.73
2018-07-03T17:32:37.800Z,3.87
2018-07-03T17:35:11.560Z,4.23
2018-07-03T17:37:45.368Z,4.10
2018-07-03T17:40:31.039Z,3.83
2018-07-03T17:43:04.865Z,4.60
2018-07-03T17:45:47.311Z,3.70
2018-07-03T17:48:21.019Z,3.60
2018-07-03T17:50:54.750Z,4.13
2018-07-03T17:53:28.404Z,4.03
2018-07-03T17:56:02.280Z,3.90
2018-07-03T17:58:36.904Z,4.10
2018-07-03T18:01:10.544Z,4.37
2018-07-03T18:03:45.031Z,3.50
2018-07-03T18:06:19.564Z,3.53
2018-07-03T18:08:54.214Z,3.77
2018-07-03T18:11:28.048Z,4.10
2018-07-03T18:14:01.825Z,4.03
2018-07-03T18:16:35.638Z,4.50
2018-07-03T18:19:09.456Z,4.80
2018-07-03T18:21:43.145Z,3.83
2018-07-03T18:24:16.720Z,9.60
2018-07-03T18:26:50.524Z,4.10
2018-07-03T18:29:24.221Z,4.47
2018-07-03T18:31:57.994Z,4.10
2018-07-03T18:34:31.658Z,4.70
2018-07-03T18:37:05.372Z,5.50
2018-07-03T18:39:39.255Z,8.67
2018-07-03T18:42:13.045Z,7.30
2018-07-03T18:44:47.645Z,4.60
2018-07-03T18:47:21.302Z,4.70
2018-07-03T18:49:55.865Z,4.57
2018-07-03T18:52:29.683Z,5.20
2018-07-03T18:55:04.228Z,4.57
2018-07-03T18:57:37.977Z,5.70
2018-07-03T19:00:11.937Z,5.50
2018-07-03T19:02:45.795Z,4.80
2018-07-03T19:05:19.456Z,4.80
2018-07-03T19:07:53.172Z,4.90
2018-07-03T19:10:27.270Z,6.00
2018-07-03T19:13:01.102Z,6.13
2018-07-03T19:15:34.822Z,4.80
2018-07-03T19:18:09.452Z,6.57
2018-07-03T19:20:43.292Z,5.03
2018-07-03T19:23:17.196Z,6.50
2018-07-03T19:25:50.963Z,8.60
2018-07-03T19:28:24.637Z,5.30
2018-07-03T19:30:58.439Z,6.67
2018-07-03T19:33:32.259Z,6.00
2018-07-03T19:36:06.120Z,6.70
2018-07-03T19:38:40.683Z,7.60
2018-07-03T19:41:15.202Z,7.50
2018-07-03T19:43:48.973Z,5.67
2018-07-03T19:46:23.531Z,5.90
2018-07-03T19:48:57.268Z,6.50
2018-07-03T19:51:31.070Z,6.53
2018-07-03T19:54:05.706Z,6.90
2018-07-03T19:56:39.593Z,6.23
2018-07-03T19:59:14.105Z,7.67
2018-07-03T20:01:47.791Z,7.50
2018-07-03T20:04:21.655Z,8.93
2018-07-03T20:06:56.375Z,7.10
2018-07-03T20:09:30.116Z,7.47
2018-07-03T20:12:04.646Z,7.40
2018-07-03T20:14:38.314Z,5.47
2018-07-03T20:17:12.892Z,6.40
2018-07-03T20:19:46.755Z,6.30
2018-07-03T20:22:21.460Z,6.30
2018-07-03T20:24:55.309Z,7.17
2018-07-03T20:27:29.968Z,7.50
2018-07-03T20:30:03.719Z,7.20
2018-07-03T20:32:37.501Z,7.40
2018-07-03T20:35:12.084Z,7.17
2018-07-03T20:37:45.951Z,7.07
2018-07-03T20:40:19.723Z,6.70
2018-07-03T20:42:54.253Z,7.17
2018-07-03T20:45:27.961Z,7.77
2018-07-03T20:48:02.557Z,6.83
2018-07-03T20:50:36.280Z,7.67
2018-07-03T20:53:10.144Z,6.73
2018-07-03T20:55:44.731Z,5.90
2018-07-03T20:58:18.568Z,6.20
2018-07-03T21:00:52.208Z,6.80
2018-07-03T21:03:25.908Z,6.33
2018-07-03T21:05:59.850Z,7.83
2018-07-03T21:08:33.654Z,8.77
2018-07-03T21:11:07.346Z,7.90
2018-07-03T21:13:40.977Z,7.43
2018-07-03T21:16:15.670Z,7.57
2018-07-03T21:18:49.325Z,6.93
2018-07-03T21:21:23.879Z,6.20
2018-07-03T21:23:57.809Z,6.47
2018-07-03T21:26:32.380Z,6.67
2018-07-03T21:29:06.143Z,6.30
2018-07-03T21:31:40.466Z,6.07
2018-07-03T21:34:15.059Z,6.40
2018-07-03T21:36:48.964Z,5.37
2018-07-03T21:39:23.524Z,5.47
2018-07-03T21:41:57.256Z,5.73
2018-07-03T21:44:31.795Z,6.27
2018-07-03T21:47:05.487Z,7.80
2018-07-03T21:49:39.280Z,6.90
2018-07-03T21:52:12.960Z,6.50
2018-07-03T21:54:47.532Z,7.00
2018-07-03T21:57:21.260Z,6.43
2018-07-03T21:59:54.907Z,12.57
2018-07-03T22:02:28.785Z,6.47
2018-07-03T22:05:03.206Z,6.40
2018-07-03T22:07:37.060Z,6.07
2018-07-03T22:10:10.965Z,5.50
2018-07-03T22:12:45.557Z,5.60
2018-07-03T22:15:19.349Z,5.90
2018-07-03T22:17:52.964Z,6.93
2018-07-03T22:20:26.771Z,6.40
2018-07-03T22:23:01.188Z,5.80
2018-07-03T22:25:35.567Z,5.87
2018-07-03T22:28:09.297Z,6.30
2018-07-03T22:30:42.964Z,5.47
2018-07-03T22:33:16.680Z,6.13
2018-07-03T22:35:50.440Z,7.70
2018-07-03T22:38:24.366Z,5.77
2018-07-03T22:40:57.982Z,6.10
2018-07-03T22:43:31.762Z,6.00
2018-07-03T22:46:05.422Z,6.20
2018-07-03T22:48:40.147Z,7.90
2018-07-03T22:51:14.657Z,6.00
2018-07-03T22:53:49.207Z,7.90
2018-07-03T22:56:23.014Z,6.00
2018-07-03T22:58:56.694Z,6.03
2018-07-03T23:01:30.506Z,6.33
2018-07-03T23:04:04.353Z,7.30
2018-07-03T23:06:38.964Z,5.83
2018-07-03T23:09:12.782Z,6.80
2018-07-03T23:11:46.586Z,6.43
2018-07-03T23:14:20.220Z,6.10
2018-07-03T23:16:53.855Z,5.80
2018-07-03T23:19:27.481Z,5.87
2018-07-03T23:22:01.356Z,6.47
2018-07-03T23:24:35.168Z,5.80
2018-07-03T23:27:09.027Z,6.33
2018-07-03T23:29:42.739Z,6.40
2018-07-03T23:32:17.319Z,7.27
2018-07-03T23:34:51.971Z,5.87
2018-07-03T23:37:26.456Z,6.07
2018-07-03T23:40:00.323Z,5.63
2018-07-03T23:42:34.867Z,5.43
2018-07-03T23:45:08.584Z,6.73
2018-07-03T23:47:54.444Z,5.90
2018-07-03T23:50:40.136Z,5.60
2018-07-03T23:53:25.838Z,5.77
2018-07-03T23:56:11.726Z,5.50
2018-07-03T23:58:57.620Z,12.10
